Time;durP1;ratioP1;P1;durP2;ratioP2;P2;SDS_P1;SDS_P2;PMS_P1;PMS_P2;Temp;Humidity;BMP_temperature;BMP_pressure;BME280_temperature;BME280_humidity;BME280_pressure;Samples;Min_cycle;Max_cycle;Signal;HPM_P1;HPM_P2
2021/07/04 00:00:44;;;;;;;0.18;0.18;;;;;;;18.45;54.56;98025.55;128909;1096;115327;-78
2021/07/04 00:03:12;;;;;;;0.15;0.15;;;;;;;18.39;54.50;98024.28;128670;1096;117302;-79
2021/07/04 00:05:49;;;;;;;0.10;0.10;;;;;;;18.34;55.24;98025.39;128710;1096;115670;-80
2021/07/04 00:08:22;;;;;;;0.20;0.20;;;;;;;18.28;54.93;98023.38;128687;1096;116653;-80
2021/07/04 00:10:56;;;;;;;0.15;0.15;;;;;;;18.24;55.00;98017.88;128728;1096;115702;-78
2021/07/04 00:13:22;;;;;;;0.30;0.30;;;;;;;18.20;55.11;98019.77;129543;1096;23257;-78
2021/07/04 00:15:49;;;;;;;0.20;0.20;;;;;;;18.17;55.20;98025.16;128736;1096;115131;-78
2021/07/04 00:18:22;;;;;;;0.10;0.10;;;;;;;18.14;55.81;98019.28;128826;1094;115906;-78
2021/07/04 00:20:50;;;;;;;0.20;0.20;;;;;;;18.12;55.42;98009.92;128667;1096;116124;-79
2021/07/04 00:23:17;;;;;;;0.10;0.10;;;;;;;18.09;55.78;98019.61;128744;1096;116216;-79
2021/07/04 00:25:45;;;;;;;0.20;0.20;;;;;;;18.08;55.95;98025.44;129000;1096;115923;-79
2021/07/04 00:28:12;;;;;;;0.20;0.20;;;;;;;18.05;56.09;98018.77;129566;1096;22559;-78
2021/07/04 00:30:38;;;;;;;0.20;0.20;;;;;;;18.04;56.33;98019.14;128691;1097;115176;-78
2021/07/04 00:33:05;;;;;;;0.10;0.10;;;;;;;18.01;56.09;98009.76;128703;1096;116531;-78
2021/07/04 00:35:32;;;;;;;0.20;0.20;;;;;;;18.01;56.74;98008.98;128709;1096;115573;-79
2021/07/04 00:37:59;;;;;;;0.20;0.20;;;;;;;18.03;57.04;98014.83;128777;1096;115582;-79
2021/07/04 00:40:27;;;;;;;0.20;0.20;;;;;;;18.05;57.60;98021.49;129524;1096;22559;-79
2021/07/04 00:42:53;;;;;;;0.20;0.20;;;;;;;18.08;57.65;98017.26;128725;1096;114961;-79
2021/07/04 00:45:23;;;;;;;0.20;0.20;;;;;;;18.09;57.25;98011.43;128708;1095;116032;-78
2021/07/04 00:47:51;;;;;;;0.20;0.20;;;;;;;18.11;56.94;98013.77;128769;1096;115413;-79
2021/07/04 00:50:19;;;;;;;0.20;0.20;;;;;;;18.12;57.00;98012.64;128787;1095;115788;-79
2021/07/04 00:52:46;;;;;;;0.20;0.20;;;;;;;18.12;56.95;98007.20;128699;1095;115778;-79
2021/07/04 00:55:17;;;;;;;0.10;0.10;;;;;;;18.12;57.15;98012.64;129564;1096;22591;-79
2021/07/04 00:57:44;;;;;;;0.10;0.10;;;;;;;18.10;57.02;97999.38;128726;1096;115817;-78
2021/07/04 01:00:14;;;;;;;0.10;0.10;;;;;;;18.10;56.90;98001.31;128736;1096;115932;-79
2021/07/04 01:02:40;;;;;;;0.20;0.20;;;;;;;18.08;57.01;97998.97;128741;1097;115717;-77
2021/07/04 01:05:10;;;;;;;0.20;0.20;;;;;;;18.07;57.35;98002.05;128732;1096;116623;-77
2021/07/04 01:07:37;;;;;;;0.10;0.10;;;;;;;18.04;57.15;97989.17;128687;1095;116326;-79
2021/07/04 01:10:05;;;;;;;0.20;0.20;;;;;;;18.01;57.01;97982.52;129506;1097;22564;-79
2021/07/04 01:12:34;;;;;;;0.20;0.20;;;;;;;17.99;57.16;97990.25;128774;1097;115641;-79
2021/07/04 01:15:00;;;;;;;0.20;0.20;;;;;;;17.96;57.22;97982.84;128717;1096;115817;-80
2021/07/04 01:17:27;;;;;;;0.15;0.15;;;;;;;17.96;57.46;97985.56;128738;1096;115747;-77
2021/07/04 01:19:53;;;;;;;0.28;0.28;;;;;;;17.93;57.16;97988.23;128700;1096;115757;-79
2021/07/04 01:22:23;;;;;;;0.30;0.30;;;;;;;17.90;57.72;97978.84;129541;1095;22520;-79
2021/07/04 01:24:49;;;;;;;0.20;0.20;;;;;;;17.85;57.63;97988.13;128734;1096;115625;-78
2021/07/04 01:27:15;;;;;;;0.20;0.20;;;;;;;17.81;57.30;97987.28;129039;1096;115804;-78
2021/07/04 01:29:41;;;;;;;0.15;0.15;;;;;;;17.78;57.77;97988.02;128687;1097;115572;-77
2021/07/04 01:32:07;;;;;;;0.10;0.10;;;;;;;17.74;57.92;97980.92;128726;1096;116467;-77
2021/07/04 01:34:33;;;;;;;0.10;0.10;;;;;;;17.70;58.50;97986.30;129568;1096;22577;-77
2021/07/04 01:36:59;;;;;;;0.20;0.20;;;;;;;17.65;57.98;97984.69;128722;1095;115812;-77
2021/07/04 01:39:25;;;;;;;0.10;0.10;;;;;;;17.63;58.71;97980.74;128787;1095;115949;-77
2021/07/04 01:41:51;;;;;;;0.20;0.20;;;;;;;17.64;58.94;97983.12;128779;1096;115713;-80
2021/07/04 01:44:17;;;;;;;0.20;0.20;;;;;;;17.66;59.63;97982.74;128715;1095;116752;-80
2021/07/04 01:46:43;;;;;;;0.20;0.20;;;;;;;17.71;59.41;97987.09;128756;1096;116021;-80
2021/07/04 01:49:09;;;;;;;0.20;0.20;;;;;;;17.75;59.13;97982.51;129604;1097;22612;-80
2021/07/04 01:51:35;;;;;;;0.20;0.20;;;;;;;17.77;58.93;97991.89;128714;1096;115814;-80
2021/07/04 01:54:01;;;;;;;0.17;0.17;;;;;;;17.76;59.10;97984.86;128686;1097;116332;-80
2021/07/04 01:56:27;;;;;;;0.10;0.10;;;;;;;17.77;58.80;97988.39;128729;1095;115926;-80
2021/07/04 01:58:53;;;;;;;0.20;0.20;;;;;;;17.76;58.73;97981.34;128740;1097;115707;-78
2021/07/04 02:01:19;;;;;;;0.20;0.20;;;;;;;17.75;59.18;97987.95;129541;1096;22527;-80
2021/07/04 02:03:45;;;;;;;0.20;0.20;;;;;;;17.72;59.17;97983.98;128733;1095;115480;-79
2021/07/04 02:06:11;;;;;;;0.10;0.10;;;;;;;17.67;58.71;97976.92;128773;1096;115720;-78
2021/07/04 02:08:37;;;;;;;0.10;0.10;;;;;;;17.67;58.97;97989.75;128939;1096;115745;-78
2021/07/04 02:11:03;;;;;;;0.10;0.10;;;;;;;17.64;59.01;97983.12;128671;1095;116947;-78
2021/07/04 02:13:29;;;;;;;0.10;0.10;;;;;;;17.63;58.78;97991.63;129510;1096;22666;-78
2021/07/04 02:15:55;;;;;;;0.20;0.20;;;;;;;17.60;58.74;97995.08;128713;1094;116320;-78
2021/07/04 02:18:22;;;;;;;0.20;0.20;;;;;;;17.57;59.06;98002.06;128701;1095;116460;-80
2021/07/04 02:20:54;;;;;;;0.20;0.20;;;;;;;17.54;58.92;98008.22;128715;1096;115779;-80
2021/07/04 02:23:25;;;;;;;0.10;0.10;;;;;;;17.50;59.05;98004.66;128689;1096;115363;-80
2021/07/04 02:25:52;;;;;;;0.13;0.13;;;;;;;17.48;59.01;97992.55;128677;1095;115993;-80
2021/07/04 02:28:20;;;;;;;0.20;0.20;;;;;;;17.44;59.21;98000.66;129505;1096;22567;-80
2021/07/04 02:30:49;;;;;;;0.20;0.20;;;;;;;17.42;59.16;98005.69;128802;1097;115559;-80
2021/07/04 02:33:17;;;;;;;0.20;0.20;;;;;;;17.39;59.73;97998.25;128730;1096;116715;-80
2021/07/04 02:35:52;;;;;;;0.20;0.20;;;;;;;17.41;60.46;98001.41;128724;1095;115957;-80
2021/07/04 02:38:19;;;;;;;0.28;0.28;;;;;;;17.43;60.85;97994.42;128671;1097;116512;-80
2021/07/04 02:40:46;;;;;;;0.17;0.17;;;;;;;17.46;60.61;98003.03;128739;1097;115558;-80
2021/07/04 02:43:16;;;;;;;0.20;0.20;;;;;;;17.48;60.59;98001.50;129512;1096;23686;-80
2021/07/04 02:45:44;;;;;;;0.20;0.20;;;;;;;17.51;60.05;98002.72;128788;1096;115185;-80
2021/07/04 02:48:11;;;;;;;0.10;0.10;;;;;;;17.53;59.91;97997.70;128670;1096;115440;-80
2021/07/04 02:50:39;;;;;;;0.20;0.20;;;;;;;17.53;59.98;97995.77;128893;1096;115609;-80
2021/07/04 02:53:05;;;;;;;0.20;0.20;;;;;;;17.53;60.27;97990.33;128722;1096;115927;-80
2021/07/04 02:55:32;;;;;;;0.10;0.10;;;;;;;17.50;59.89;97995.70;129561;1097;22554;-80
2021/07/04 02:57:58;;;;;;;0.10;0.10;;;;;;;17.50;59.47;98003.88;128707;1096;115612;-80
2021/07/04 03:00:26;;;;;;;0.20;0.20;;;;;;;17.47;60.01;98007.31;128751;1096;115807;-80
2021/07/04 03:02:54;;;;;;;0.18;0.18;;;;;;;17.44;59.29;98006.09;128701;1097;116043;-80
2021/07/04 03:05:20;;;;;;;0.20;0.20;;;;;;;17.41;59.67;98015.02;128691;1096;116033;-80
2021/07/04 03:07:47;;;;;;;0.10;0.10;;;;;;;17.35;60.25;98009.06;128705;1096;115759;-80
2021/07/04 03:10:19;;;;;;;0.20;0.20;;;;;;;17.31;60.16;98002.00;129536;1095;22545;-80
2021/07/04 03:12:45;;;;;;;0.10;0.10;;;;;;;17.26;60.22;98008.53;128708;1096;115769;-80
2021/07/04 03:15:13;;;;;;;0.20;0.20;;;;;;;17.22;60.63;98018.56;128675;1096;116059;-80
2021/07/04 03:17:40;;;;;;;0.30;0.30;;;;;;;17.18;60.39;98026.66;128762;1096;116834;-80
2021/07/04 03:20:09;;;;;;;0.20;0.20;;;;;;;17.15;60.35;98026.59;128779;1096;116593;-80
2021/07/04 03:22:36;;;;;;;0.30;0.30;;;;;;;17.12;60.69;98028.09;128690;1096;115829;-80
2021/07/04 03:25:04;;;;;;;0.15;0.15;;;;;;;17.12;61.14;98025.38;129516;1097;22550;-80
2021/07/04 03:27:30;;;;;;;0.15;0.15;;;;;;;17.15;61.49;98019.22;128716;1097;115765;-80
2021/07/04 03:29:56;;;;;;;0.20;0.20;;;;;;;17.18;61.73;98013.06;128713;1096;115593;-80
2021/07/04 03:32:22;;;;;;;0.10;0.10;;;;;;;17.24;61.71;98004.59;128690;1096;115475;-80
2021/07/04 03:34:49;;;;;;;0.10;0.10;;;;;;;17.29;61.75;98007.00;128751;1095;115817;-80
2021/07/04 03:37:16;;;;;;;0.15;0.15;;;;;;;17.35;61.34;98008.28;129562;1096;22519;-80
2021/07/04 03:39:43;;;;;;;0.20;0.20;;;;;;;17.38;61.09;98019.23;128719;1095;116624;-80
2021/07/04 03:42:10;;;;;;;0.20;0.20;;;;;;;17.43;61.08;98016.20;128713;1095;115237;-79
2021/07/04 03:44:37;;;;;;;0.20;0.20;;;;;;;17.46;60.89;98011.98;128743;1096;115884;-79
2021/07/04 03:47:03;;;;;;;0.20;0.20;;;;;;;17.48;60.61;98006.94;128781;1096;115593;-79
2021/07/04 03:49:30;;;;;;;0.13;0.13;;;;;;;17.51;60.53;98008.16;129625;1095;22584;-79
2021/07/04 03:51:56;;;;;;;0.20;0.20;;;;;;;17.55;60.60;98014.45;128683;1096;115739;-79
2021/07/04 03:54:22;;;;;;;0.10;0.10;;;;;;;17.60;60.80;98011.41;128688;1095;115936;-79
2021/07/04 03:56:48;;;;;;;0.20;0.20;;;;;;;17.65;60.72;98016.58;128698;1096;116050;-79
2021/07/04 03:59:14;;;;;;;0.20;0.20;;;;;;;17.69;60.39;98017.41;128704;1096;115897;-79
2021/07/04 04:01:41;;;;;;;0.20;0.20;;;;;;;17.73;60.41;98010.09;128747;1095;115709;-79
2021/07/04 04:04:07;;;;;;;0.20;0.20;;;;;;;17.77;60.13;98010.95;129541;1096;22533;-79
2021/07/04 04:06:33;;;;;;;0.28;0.28;;;;;;;17.81;60.25;98009.08;128719;1096;115596;-79
2021/07/04 04:08:59;;;;;;;0.20;0.20;;;;;;;17.84;60.40;98002.09;128777;1096;115985;-79
2021/07/04 04:11:25;;;;;;;0.10;0.10;;;;;;;17.87;60.45;98007.59;128711;1096;116323;-79
2021/07/04 04:13:51;;;;;;;0.20;0.20;;;;;;;17.91;59.99;98007.65;128673;1096;117435;-79
2021/07/04 04:16:17;;;;;;;0.10;0.10;;;;;;;17.95;60.50;98003.04;129526;1095;22557;-79
2021/07/04 04:18:44;;;;;;;0.10;0.10;;;;;;;18.02;61.28;98005.88;128686;1096;115602;-79
2021/07/04 04:21:11;;;;;;;0.20;0.20;;;;;;;18.12;61.27;98012.64;128594;1096;115526;-80
2021/07/04 04:23:37;;;;;;;0.13;0.13;;;;;;;18.20;61.13;98008.08;128733;1096;116185;-80
2021/07/04 04:26:04;;;;;;;0.10;0.10;;;;;;;18.29;61.00;98003.14;128775;1096;115467;-78
2021/07/04 04:28:31;;;;;;;0.10;0.10;;;;;;;18.38;60.65;98009.09;129584;1095;22547;-79
2021/07/04 04:30:57;;;;;;;0.20;0.20;;;;;;;18.47;60.35;98001.44;128716;1096;115739;-78
2021/07/04 04:33:23;;;;;;;0.10;0.10;;;;;;;18.55;59.77;98007.73;128745;1095;116113;-78
2021/07/04 04:35:49;;;;;;;0.30;0.30;;;;;;;18.63;59.72;98001.23;128756;1095;115493;-79
2021/07/04 04:38:16;;;;;;;0.33;0.33;;;;;;;18.73;59.25;98005.27;128913;1096;115824;-79
2021/07/04 04:40:43;;;;;;;0.28;0.28;;;;;;;18.81;59.40;98006.91;128723;1096;116220;-79
2021/07/04 04:43:09;;;;;;;0.30;0.30;;;;;;;18.88;59.08;97999.59;129554;1096;23320;-79
2021/07/04 04:45:35;;;;;;;0.20;0.20;;;;;;;18.97;58.58;98015.66;128711;1096;116362;-79
2021/07/04 04:48:02;;;;;;;0.20;0.20;;;;;;;19.05;58.69;98013.80;128728;1096;115985;-79
2021/07/04 04:50:28;;;;;;;0.20;0.20;;;;;;;19.12;58.51;98008.42;128711;1096;116015;-79
2021/07/04 04:52:54;;;;;;;0.20;0.20;;;;;;;19.19;58.68;98008.50;128733;1095;116429;-79
2021/07/04 04:55:20;;;;;;;0.20;0.20;;;;;;;19.25;58.57;98009.70;129533;1097;23280;-80
2021/07/04 04:57:46;;;;;;;0.20;0.20;;;;;;;19.33;58.80;98013.29;128728;1096;116323;-79
2021/07/04 05:00:14;;;;;;;0.20;0.20;;;;;;;19.40;58.88;98010.63;128723;1096;115534;-79
2021/07/04 05:02:40;;;;;;;0.20;0.20;;;;;;;19.47;58.35;98013.44;128766;1096;116252;-80
2021/07/04 05:05:07;;;;;;;0.30;0.30;;;;;;;19.54;58.36;98012.72;128751;1096;115621;-80
2021/07/04 05:07:34;;;;;;;0.20;0.20;;;;;;;19.63;58.51;98012.42;129519;1097;23305;-80
2021/07/04 05:10:00;;;;;;;0.20;0.20;;;;;;;19.71;58.36;98014.05;129486;1096;114738;-80
2021/07/04 05:12:26;;;;;;;0.20;0.20;;;;;;;19.79;58.20;98016.45;128703;1096;115425;-80
2021/07/04 05:14:54;;;;;;;0.25;0.25;;;;;;;19.88;58.09;98015.34;128762;1095;115356;-80
2021/07/04 05:17:20;;;;;;;0.30;0.30;;;;;;;19.96;57.92;98014.22;128789;1096;116157;-80
2021/07/04 05:19:47;;;;;;;;;;;;;;;20.05;57.54;98012.73;128747;1096;116676;-80
2021/07/04 05:22:13;;;;;;;0.10;0.10;;;;;;;20.13;57.30;98002.64;129888;1096;22579;-80
2021/07/04 05:24:39;;;;;;;0.20;0.20;;;;;;;20.23;56.61;98004.63;128941;1096;116140;-80
2021/07/04 05:27:05;;;;;;;0.20;0.20;;;;;;;20.30;56.32;98001.94;128751;1096;116626;-80
2021/07/04 05:29:31;;;;;;;0.20;0.20;;;;;;;20.41;56.26;98006.69;128718;1095;116051;-79
2021/07/04 05:31:57;;;;;;;0.20;0.20;;;;;;;20.49;55.98;98003.63;128748;1096;116121;-79
2021/07/04 05:34:26;;;;;;;0.20;0.20;;;;;;;20.57;55.59;98007.19;129534;1096;22510;-79
2021/07/04 05:36:52;;;;;;;0.20;0.20;;;;;;;20.68;55.54;98004.50;128740;1096;115686;-79
2021/07/04 05:39:18;;;;;;;0.30;0.30;;;;;;;20.77;55.26;98000.22;128673;1096;115663;-79
2021/07/04 05:41:44;;;;;;;0.20;0.20;;;;;;;20.88;55.33;97999.48;128703;1097;116624;-79
2021/07/04 05:44:11;;;;;;;0.30;0.30;;;;;;;21.00;54.78;98005.38;128991;1096;116235;-79
2021/07/04 05:46:37;;;;;;;0.20;0.20;;;;;;;21.10;54.51;98006.55;128721;1096;116985;-79
2021/07/04 05:49:05;;;;;;;0.28;0.28;;;;;;;21.21;54.24;98004.63;129558;1096;23047;-79
2021/07/04 05:51:31;;;;;;;0.20;0.20;;;;;;;21.32;53.14;98005.45;128715;1096;116125;-79
2021/07/04 05:53:58;;;;;;;0.20;0.20;;;;;;;21.41;52.78;98009.77;128686;1096;116092;-79
2021/07/04 05:56:25;;;;;;;0.30;0.30;;;;;;;21.52;52.67;98010.56;128784;1096;115785;-80
2021/07/04 05:58:51;;;;;;;0.30;0.30;;;;;;;21.63;52.38;98016.05;128732;1096;115963;-80
2021/07/04 06:01:19;;;;;;;0.23;0.23;;;;;;;21.71;51.98;98012.92;129529;1096;22548;-80
2021/07/04 06:03:45;;;;;;;0.30;0.30;;;;;;;21.82;51.65;98023.88;128713;1096;115321;-80
2021/07/04 06:06:10;;;;;;;0.20;0.20;;;;;;;21.91;50.99;98020.73;128684;1096;115922;-79
2021/07/04 06:08:37;;;;;;;0.30;0.30;;;;;;;22.02;50.44;98021.52;128946;1096;115785;-83
2021/07/04 06:11:03;;;;;;;0.20;0.20;;;;;;;22.11;50.65;98015.63;128710;1096;115990;-82
2021/07/04 06:13:29;;;;;;;0.20;0.20;;;;;;;22.18;50.44;98021.91;129582;1096;23365;-82
2021/07/04 06:15:55;;;;;;;0.30;0.30;;;;;;;22.26;50.09;98017.97;128675;1095;115200;-82
2021/07/04 06:18:21;;;;;;;0.20;0.20;;;;;;;22.36;49.71;98015.58;128698;1095;116344;-82
2021/07/04 06:20:47;;;;;;;0.30;0.30;;;;;;;22.44;49.50;98012.45;128724;1096;115381;-82
2021/07/04 06:23:13;;;;;;;0.30;0.30;;;;;;;;;;128710;1096;115864;-82
2021/07/04 06:25:39;;;;;;;0.28;0.28;;;;;;;22.66;49.08;98028.82;128944;1096;90052;-82
2021/07/04 06:28:05;;;;;;;0.30;0.30;;;;;;;22.75;49.34;98024.48;129604;1095;22588;-81
2021/07/04 06:30:42;;;;;;;0.20;0.20;;;;;;;22.86;48.80;98029.13;128620;1096;115418;-81
2021/07/04 06:33:16;;;;;;;0.40;0.40;;;;;;;22.95;48.69;98026.75;128250;1096;114953;-81
2021/07/04 06:35:56;;;;;;;0.40;0.40;;;;;;;23.04;48.21;98024.38;128480;1096;116029;-81
2021/07/04 06:38:24;;;;;;;0.30;0.30;;;;;;;23.15;48.07;98019.60;128724;1096;116221;-80
2021/07/04 06:40:50;;;;;;;0.30;0.30;;;;;;;23.24;47.75;98025.42;128757;1095;115671;-80
2021/07/04 06:43:16;;;;;;;0.40;0.40;;;;;;;23.34;47.33;98028.49;129701;1096;22561;-79
2021/07/04 06:45:42;;;;;;;0.30;0.30;;;;;;;23.45;47.10;98015.47;128748;1096;115672;-80
2021/07/04 06:48:08;;;;;;;0.30;0.30;;;;;;;23.58;46.31;98022.06;128731;1095;115902;-81
2021/07/04 06:50:36;;;;;;;0.30;0.30;;;;;;;23.67;46.41;98027.13;128702;1097;115722;-83
2021/07/04 06:53:02;;;;;;;0.30;0.30;;;;;;;23.76;45.96;98030.95;128768;1095;116006;-83
2021/07/04 06:55:28;;;;;;;0.20;0.20;;;;;;;23.84;45.51;98033.65;129589;1096;22543;-84
2021/07/04 06:57:54;;;;;;;0.30;0.30;;;;;;;23.91;44.83;98033.59;128694;1096;115939;-83
2021/07/04 07:00:20;;;;;;;0.30;0.30;;;;;;;23.97;44.55;98024.52;128736;1096;115786;-83
2021/07/04 07:02:47;;;;;;;0.30;0.30;;;;;;;24.10;43.87;98030.28;128738;1096;116629;-83
2021/07/04 07:05:14;;;;;;;0.38;0.38;;;;;;;24.20;43.29;98026.63;128718;1096;115853;-83
2021/07/04 07:07:41;;;;;;;0.30;0.30;;;;;;;24.30;42.72;98022.21;128731;1096;116088;-83
2021/07/04 07:10:09;;;;;;;0.30;0.30;;;;;;;24.42;42.59;98024.47;129528;1096;22579;-82
2021/07/04 07:12:36;;;;;;;0.30;0.30;;;;;;;24.54;42.37;98025.91;128703;1096;116148;-82
2021/07/04 07:15:03;;;;;;;0.38;0.38;;;;;;;24.67;41.93;98020.64;128718;1095;115951;-82
2021/07/04 07:17:29;;;;;;;0.30;0.30;;;;;;;24.79;41.95;98022.84;128720;1096;116271;-83
2021/07/04 07:19:56;;;;;;;0.50;0.50;;;;;;;24.94;41.82;98024.22;128690;1096;115538;-83
2021/07/04 07:22:22;;;;;;;0.33;0.33;;;;;;;25.07;41.46;98018.93;129520;1094;22504;-83
2021/07/04 07:24:49;;;;;;;0.40;0.40;;;;;;;25.21;41.03;98015.23;128697;1096;116243;-83
2021/07/04 07:27:16;;;;;;;0.45;0.45;;;;;;;25.31;40.15;98010.75;128696;1097;117109;-82
2021/07/04 07:29:42;;;;;;;0.40;0.40;;;;;;;25.40;39.91;98011.03;128679;1096;116698;-83
2021/07/04 07:32:08;;;;;;;0.40;0.40;;;;;;;25.50;39.41;98015.58;128663;1096;115855;-83
2021/07/04 07:34:35;;;;;;;0.50;0.50;;;;;;;25.60;38.98;98020.16;129248;1097;116345;-84
2021/07/04 07:37:01;;;;;;;0.50;0.50;;;;;;;25.70;38.81;98002.67;129305;1096;119836;-83
2021/07/04 07:39:27;;;;;;;0.40;0.40;;;;;;;25.77;38.43;98020.28;128670;1096;116728;-83
2021/07/04 07:41:53;;;;;;;0.40;0.40;;;;;;;25.85;38.29;98013.48;128698;1096;115379;-83
2021/07/04 07:44:19;;;;;;;0.40;0.40;;;;;;;25.88;38.41;98012.64;128698;1096;116306;-83
2021/07/04 07:46:48;;;;;;;;;;;;;;;25.98;38.15;98016.41;128663;1095;117191;-83
2021/07/04 07:49:14;;;;;;;0.38;0.38;;;;;;;26.01;38.08;98016.34;129557;1097;22549;-83
2021/07/04 07:51:41;;;;;;;0.40;0.40;;;;;;;26.05;38.14;98011.54;128665;1096;115652;-82
2021/07/04 07:54:07;;;;;;;0.40;0.40;;;;;;;26.10;38.04;98016.59;128768;1095;116100;-83
2021/07/04 07:56:33;;;;;;;0.30;0.30;;;;;;;26.15;37.80;98018.08;128713;1095;115323;-86
2021/07/04 07:58:59;;;;;;;0.30;0.30;;;;;;;26.22;38.06;98015.20;128734;1096;115675;-84
2021/07/04 08:01:25;;;;;;;0.30;0.30;;;;;;;26.30;37.40;98022.14;129552;1097;22540;-83
2021/07/04 08:03:51;;;;;;;0.50;0.50;;;;;;;26.33;37.53;98018.54;128787;1096;115320;-82
2021/07/04 08:06:17;;;;;;;0.40;0.40;;;;;;;26.27;37.16;98019.44;128743;1095;115304;-83
2021/07/04 08:08:43;;;;;;;0.50;0.50;;;;;;;26.29;36.85;98022.55;128776;1095;115767;-83
2021/07/04 08:11:10;;;;;;;0.30;0.30;;;;;;;26.34;36.93;98024.84;128689;1096;115950;-83
2021/07/04 08:13:36;;;;;;;0.40;0.40;;;;;;;26.41;37.08;98019.19;128697;1097;115689;-83
2021/07/04 08:16:02;;;;;;;0.40;0.40;;;;;;;26.44;36.76;98019.09;129581;1096;22608;-83
2021/07/04 08:18:28;;;;;;;0.50;0.50;;;;;;;26.43;36.44;98027.81;128684;1096;115603;-84
2021/07/04 08:20:54;;;;;;;0.35;0.35;;;;;;;26.38;35.88;98018.04;128768;1096;116278;-83
2021/07/04 08:23:21;;;;;;;0.40;0.40;;;;;;;26.38;36.04;98029.08;128673;1095;116670;-83
2021/07/04 08:25:47;;;;;;;0.35;0.35;;;;;;;26.44;36.14;98008.05;128671;1096;116317;-84
2021/07/04 08:28:13;;;;;;;0.40;0.40;;;;;;;26.52;35.63;98010.70;129523;1096;23053;-82
2021/07/04 08:30:39;;;;;;;0.40;0.40;;;;;;;26.48;35.22;98013.53;128700;1096;116627;-84
2021/07/04 08:33:06;;;;;;;0.33;0.33;;;;;;;26.53;35.20;98020.56;128739;1096;116344;-83
2021/07/04 08:35:32;;;;;;;0.33;0.33;;;;;;;26.67;34.94;98018.27;128974;1096;115983;-84
2021/07/04 08:37:58;;;;;;;0.50;0.50;;;;;;;26.83;35.06;98006.50;128696;1096;116570;-84
2021/07/04 08:40:24;;;;;;;0.40;0.40;;;;;;;26.97;35.22;98010.19;129756;1096;22540;-84
2021/07/04 08:42:50;;;;;;;0.43;0.43;;;;;;;27.13;35.07;98011.02;128716;1097;116406;-84
2021/07/04 08:45:16;;;;;;;0.40;0.40;;;;;;;27.30;35.38;98005.52;128776;1096;116302;-84
2021/07/04 08:47:42;;;;;;;0.40;0.40;;;;;;;27.44;35.20;98010.72;128752;1096;115558;-83
2021/07/04 08:50:09;;;;;;;0.30;0.30;;;;;;;27.56;34.63;98007.27;128923;1096;117017;-83
2021/07/04 08:52:36;;;;;;;0.40;0.40;;;;;;;27.63;34.38;98011.86;129258;1096;115638;-84
2021/07/04 08:55:04;;;;;;;0.50;0.50;;;;;;;27.69;34.33;98003.80;129538;1096;121217;-86
2021/07/04 08:57:30;;;;;;;0.45;0.45;;;;;;;27.69;33.93;97999.05;128728;1095;116115;-84
2021/07/04 08:59:57;;;;;;;0.40;0.40;;;;;;;27.72;34.12;98000.18;128750;1096;116156;-83
2021/07/04 09:02:39;;;;;;;0.40;0.40;;;;;;;27.73;33.86;97998.95;128701;1096;116416;-83
2021/07/04 09:05:08;;;;;;;0.30;0.30;;;;;;;27.71;33.95;97998.63;128724;1097;116327;-83
2021/07/04 09:07:36;;;;;;;0.40;0.40;;;;;;;27.78;34.49;98003.98;129610;1096;23304;-83
2021/07/04 09:10:05;;;;;;;0.30;0.30;;;;;;;27.89;34.33;97999.74;129562;1096;22609;-83
2021/07/04 09:12:51;;;;;;;0.50;0.50;;;;;;;27.95;34.23;97997.24;128834;1096;116780;-83
2021/07/04 09:15:31;;;;;;;0.48;0.48;;;;;;;28.03;33.71;97997.84;128747;1096;115653;-83
2021/07/04 09:17:59;;;;;;;0.40;0.40;;;;;;;28.08;33.65;97991.77;128719;1096;115661;-83
2021/07/04 09:20:31;;;;;;;0.40;0.40;;;;;;;28.10;33.30;97992.12;128864;1096;115547;-83
2021/07/04 09:22:59;;;;;;;0.40;0.40;;;;;;;28.11;33.20;97988.91;128918;1096;116216;-84
2021/07/04 09:25:35;;;;;;;0.50;0.50;;;;;;;28.18;33.36;97992.67;129488;1096;23357;-84
2021/07/04 09:28:24;;;;;;;0.40;0.40;;;;;;;28.28;32.86;97986.09;129577;1096;22534;-87
2021/07/04 09:30:56;;;;;;;0.50;0.50;;;;;;;28.39;33.05;97978.30;129039;1096;115442;-85
2021/07/04 09:33:32;;;;;;;0.40;0.40;;;;;;;28.48;32.52;97988.73;128789;1096;115923;-85
2021/07/04 09:36:03;;;;;;;0.30;0.30;;;;;;;28.53;32.24;97974.33;128715;1096;116185;-84
2021/07/04 09:38:39;;;;;;;0.48;0.48;;;;;;;28.60;31.93;97982.44;129054;1095;115835;-84
2021/07/04 09:41:08;;;;;;;0.50;0.50;;;;;;;28.67;31.45;97978.69;128682;1096;115974;-84
2021/07/04 09:43:38;;;;;;;0.30;0.30;;;;;;;28.74;31.11;97981.26;129518;1096;22550;-85
2021/07/04 09:46:28;;;;;;;0.30;0.30;;;;;;;28.86;30.74;97972.95;129555;1096;22547;-90
2021/07/04 09:49:03;;;;;;;0.48;0.48;;;;;;;29.04;30.29;97971.66;129288;1096;114866;-88
2021/07/04 09:51:31;;;;;;;0.40;0.40;;;;;;;29.16;29.85;97962.59;128717;1095;117007;-84
2021/07/04 09:53:59;;;;;;;0.53;0.53;;;;;;;29.17;29.61;97961.36;128718;1096;116372;-85
2021/07/04 09:56:28;;;;;;;0.60;0.60;;;;;;;29.30;29.81;97959.34;128778;1096;115831;-84
2021/07/04 09:58:56;;;;;;;0.50;0.50;;;;;;;29.45;29.88;97962.44;129007;1096;116607;-83
2021/07/04 10:01:45;;;;;;;0.58;0.58;;;;;;;29.64;29.63;97962.67;129543;1096;22526;-84
2021/07/04 10:04:26;;;;;;;0.50;0.50;;;;;;;29.77;28.94;97950.30;129591;1096;22641;-84
2021/07/04 10:06:54;;;;;;;0.55;0.55;;;;;;;29.76;28.78;97950.76;128718;1096;115193;-85
2021/07/04 10:09:21;;;;;;;0.63;0.63;;;;;;;29.91;28.60;97949.05;128776;1096;115184;-85
2021/07/04 10:11:48;;;;;;;0.60;0.60;;;;;;;30.03;28.71;97945.44;128697;1096;116087;-84
2021/07/04 10:14:14;;;;;;;0.50;0.50;;;;;;;30.21;28.62;97949.60;128728;1095;116305;-83
2021/07/04 10:16:45;;;;;;;0.48;0.48;;;;;;;30.20;28.47;97946.05;128707;1096;115623;-84
2021/07/04 10:19:26;;;;;;;0.60;0.60;;;;;;;30.19;28.32;97952.84;129556;1096;22548;-83
2021/07/04 10:21:56;;;;;;;0.38;0.38;;;;;;;30.13;28.00;97937.95;128697;1097;115463;-84
2021/07/04 10:24:23;;;;;;;0.40;0.40;;;;;;;30.02;27.99;97937.55;128746;1096;115738;-83
2021/07/04 10:26:51;;;;;;;0.63;0.63;;;;;;;30.02;27.89;97932.77;128707;1097;115570;-83
2021/07/04 10:29:19;;;;;;;0.40;0.40;;;;;;;30.21;27.96;97932.94;128685;1096;116032;-83
2021/07/04 10:31:45;;;;;;;0.55;0.55;;;;;;;30.38;27.49;97927.95;128704;1097;115950;-83
2021/07/04 10:34:14;;;;;;;0.48;0.48;;;;;;;30.37;27.58;97924.41;129551;1095;22994;-83
2021/07/04 10:36:52;;;;;;;0.60;0.60;;;;;;;30.55;27.57;97923.75;128689;1096;115504;-84
2021/07/04 10:39:19;;;;;;;0.60;0.60;;;;;;;30.71;27.39;97919.97;128737;1096;116120;-85
2021/07/04 10:41:56;;;;;;;0.40;0.40;;;;;;;30.91;26.97;97914.06;128699;1097;115983;-85
2021/07/04 10:44:36;;;;;;;0.40;0.40;;;;;;;31.13;26.98;97914.00;128695;1097;115843;-84
2021/07/04 10:47:12;;;;;;;0.50;0.50;;;;;;;31.36;26.80;97909.89;128796;1096;115917;-85
2021/07/04 10:50:00;;;;;;;0.40;0.40;;;;;;;31.52;26.11;97909.63;128720;1096;116243;-83
2021/07/04 10:52:42;;;;;;;0.53;0.53;;;;;;;31.74;26.46;97912.27;129470;1096;22558;-86
2021/07/04 10:55:15;;;;;;;0.60;0.60;;;;;;;31.62;25.88;97921.53;129556;1096;22516;-84
2021/07/04 10:57:56;;;;;;;0.60;0.60;;;;;;;31.56;26.17;97913.03;128773;1096;116489;-83
2021/07/04 11:00:27;;;;;;;0.50;0.50;;;;;;;31.64;25.91;97913.51;128779;1097;115886;-84
2021/07/04 11:02:56;;;;;;;;;;;;;;;31.53;24.56;97900.81;128790;1095;115273;-84
2021/07/04 11:05:35;;;;;;;0.40;0.40;;;;;;;31.66;25.59;97906.22;128937;1096;101791;-84
2021/07/04 11:08:11;;;;;;;0.53;0.53;;;;;;;31.59;25.00;97887.04;128792;1096;116067;-84
2021/07/04 11:10:58;;;;;;;0.60;0.60;;;;;;;31.51;25.77;97894.92;128735;1096;116236;-84
2021/07/04 11:13:28;;;;;;;0.40;0.40;;;;;;;31.60;25.85;97890.59;129554;1095;22537;-84
2021/07/04 11:16:15;;;;;;;0.40;0.40;;;;;;;31.49;25.22;97889.05;128878;1096;115890;-84
2021/07/04 11:18:51;;;;;;;0.55;0.55;;;;;;;31.61;25.79;97892.16;128778;1096;115699;-84
2021/07/04 11:21:23;;;;;;;0.55;0.55;;;;;;;31.82;25.76;97902.36;128719;1096;115622;-84
2021/07/04 11:24:29;;;;;;;0.53;0.53;;;;;;;31.94;24.42;97895.13;128721;1095;116446;-84